sensor_id;sensor_type;location;lat;lon;timestamp;P1;durP1;ratioP1;P2;durP2;ratioP2
66478;SDS011;53294;47.912;13.526;2024-03-07T00:00:09;7.05;;;2.97;;
66478;SDS011;53294;47.912;13.526;2024-03-07T00:02:46;10.30;;;3.80;;
66478;SDS011;53294;47.912;13.526;2024-03-07T00:05:18;6.65;;;2.53;;
66478;SDS011;53294;47.912;13.526;2024-03-07T00:07:47;7.93;;;2.17;;
66478;SDS011;53294;47.912;13.526;2024-03-07T00:10:14;4.57;;;3.05;;
66478;SDS011;53294;47.912;13.526;2024-03-07T00:12:42;8.30;;;3.50;;
66478;SDS011;53294;47.912;13.526;2024-03-07T00:15:10;8.13;;;2.95;;
66478;SDS011;53294;47.912;13.526;2024-03-07T00:17:39;3.35;;;1.65;;
66478;SDS011;53294;47.912;13.526;2024-03-07T00:20:07;10.50;;;3.45;;
66478;SDS011;53294;47.912;13.526;2024-03-07T00:22:36;7.13;;;2.47;;
66478;SDS011;53294;47.912;13.526;2024-03-07T00:25:03;6.72;;;3.28;;
66478;SDS011;53294;47.912;13.526;2024-03-07T00:27:35;8.05;;;3.17;;
66478;SDS011;53294;47.912;13.526;2024-03-07T00:30:03;6.00;;;3.15;;
66478;SDS011;53294;47.912;13.526;2024-03-07T00:32:35;5.70;;;2.35;;
66478;SDS011;53294;47.912;13.526;2024-03-07T00:35:06;9.77;;;3.38;;
66478;SDS011;53294;47.912;13.526;2024-03-07T00:37:35;7.10;;;2.95;;
66478;SDS011;53294;47.912;13.526;2024-03-07T00:40:02;5.47;;;2.85;;
66478;SDS011;53294;47.912;13.526;2024-03-07T00:42:29;8.75;;;3.45;;
66478;SDS011;53294;47.912;13.526;2024-03-07T00:44:56;8.98;;;3.10;;
66478;SDS011;53294;47.912;13.526;2024-03-07T00:47:24;6.93;;;2.95;;
66478;SDS011;53294;47.912;13.526;2024-03-07T00:49:51;9.13;;;3.10;;
66478;SDS011;53294;47.912;13.526;2024-03-07T00:52:17;6.80;;;3.17;;
66478;SDS011;53294;47.912;13.526;2024-03-07T00:54:44;8.10;;;3.00;;
66478;SDS011;53294;47.912;13.526;2024-03-07T00:57:11;7.05;;;2.45;;
66478;SDS011;53294;47.912;13.526;2024-03-07T00:59:38;5.80;;;2.85;;
66478;SDS011;53294;47.912;13.526;2024-03-07T01:02:04;7.40;;;2.70;;
66478;SDS011;53294;47.912;13.526;2024-03-07T01:04:31;5.82;;;2.88;;
66478;SDS011;53294;47.912;13.526;2024-03-07T01:07:00;7.32;;;3.05;;
66478;SDS011;53294;47.912;13.526;2024-03-07T01:09:27;10.18;;;3.45;;
66478;SDS011;53294;47.912;13.526;2024-03-07T01:14:22;7.75;;;3.25;;
66478;SDS011;53294;47.912;13.526;2024-03-07T01:16:49;10.32;;;3.63;;
66478;SDS011;53294;47.912;13.526;2024-03-07T01:19:16;7.75;;;4.00;;
66478;SDS011;53294;47.912;13.526;2024-03-07T01:21:42;11.35;;;3.00;;
66478;SDS011;53294;47.912;13.526;2024-03-07T01:24:09;7.15;;;3.60;;
66478;SDS011;53294;47.912;13.526;2024-03-07T01:26:36;4.03;;;2.45;;
66478;SDS011;53294;47.912;13.526;2024-03-07T01:29:03;11.18;;;3.33;;
66478;SDS011;53294;47.912;13.526;2024-03-07T01:31:30;7.05;;;2.65;;
66478;SDS011;53294;47.912;13.526;2024-03-07T01:33:57;8.00;;;3.50;;
66478;SDS011;53294;47.912;13.526;2024-03-07T01:36:24;6.05;;;2.38;;
66478;SDS011;53294;47.912;13.526;2024-03-07T01:38:51;7.50;;;2.83;;
66478;SDS011;53294;47.912;13.526;2024-03-07T01:43:45;4.07;;;1.48;;
66478;SDS011;53294;47.912;13.526;2024-03-07T01:46:12;4.03;;;1.33;;
66478;SDS011;53294;47.912;13.526;2024-03-07T01:48:40;4.20;;;1.98;;
66478;SDS011;53294;47.912;13.526;2024-03-07T01:51:07;4.28;;;1.80;;
66478;SDS011;53294;47.912;13.526;2024-03-07T01:53:35;4.35;;;2.13;;
66478;SDS011;53294;47.912;13.526;2024-03-07T01:56:02;5.95;;;2.50;;
66478;SDS011;53294;47.912;13.526;2024-03-07T01:58:31;5.63;;;2.05;;
66478;SDS011;53294;47.912;13.526;2024-03-07T02:00:59;5.05;;;1.80;;
66478;SDS011;53294;47.912;13.526;2024-03-07T02:03:27;4.07;;;1.70;;
66478;SDS011;53294;47.912;13.526;2024-03-07T02:05:53;5.43;;;1.80;;
66478;SDS011;53294;47.912;13.526;2024-03-07T02:08:21;4.30;;;2.03;;
66478;SDS011;53294;47.912;13.526;2024-03-07T02:10:48;2.75;;;1.48;;
66478;SDS011;53294;47.912;13.526;2024-03-07T02:13:15;4.70;;;1.83;;
66478;SDS011;53294;47.912;13.526;2024-03-07T02:15:42;4.72;;;1.88;;
66478;SDS011;53294;47.912;13.526;2024-03-07T02:18:09;6.78;;;2.58;;
66478;SDS011;53294;47.912;13.526;2024-03-07T02:20:37;8.02;;;3.30;;
66478;SDS011;53294;47.912;13.526;2024-03-07T02:23:04;7.90;;;3.30;;
66478;SDS011;53294;47.912;13.526;2024-03-07T02:25:31;6.78;;;2.85;;
66478;SDS011;53294;47.912;13.526;2024-03-07T02:30:25;5.93;;;2.58;;
66478;SDS011;53294;47.912;13.526;2024-03-07T02:32:52;5.80;;;2.17;;
66478;SDS011;53294;47.912;13.526;2024-03-07T02:35:22;6.50;;;2.45;;
66478;SDS011;53294;47.912;13.526;2024-03-07T02:37:50;6.97;;;2.35;;
66478;SDS011;53294;47.912;13.526;2024-03-07T02:40:17;7.30;;;2.53;;
66478;SDS011;53294;47.912;13.526;2024-03-07T02:42:44;5.60;;;1.83;;
66478;SDS011;53294;47.912;13.526;2024-03-07T02:45:10;4.72;;;2.47;;
66478;SDS011;53294;47.912;13.526;2024-03-07T02:47:41;7.55;;;3.05;;
66478;SDS011;53294;47.912;13.526;2024-03-07T02:50:09;5.43;;;2.53;;
66478;SDS011;53294;47.912;13.526;2024-03-07T02:52:36;6.72;;;2.90;;
66478;SDS011;53294;47.912;13.526;2024-03-07T02:55:04;5.53;;;2.55;;
66478;SDS011;53294;47.912;13.526;2024-03-07T02:57:31;5.07;;;2.35;;
66478;SDS011;53294;47.912;13.526;2024-03-07T02:59:58;2.97;;;1.70;;
66478;SDS011;53294;47.912;13.526;2024-03-07T03:02:25;5.43;;;2.60;;
66478;SDS011;53294;47.912;13.526;2024-03-07T03:04:52;3.88;;;2.40;;
66478;SDS011;53294;47.912;13.526;2024-03-07T03:07:20;3.65;;;1.65;;
66478;SDS011;53294;47.912;13.526;2024-03-07T03:09:47;5.63;;;1.98;;
66478;SDS011;53294;47.912;13.526;2024-03-07T03:12:15;5.90;;;2.33;;
66478;SDS011;53294;47.912;13.526;2024-03-07T03:14:42;4.68;;;2.15;;
66478;SDS011;53294;47.912;13.526;2024-03-07T03:19:37;8.95;;;2.13;;
66478;SDS011;53294;47.912;13.526;2024-03-07T03:22:04;4.38;;;2.33;;
66478;SDS011;53294;47.912;13.526;2024-03-07T03:24:31;6.47;;;2.38;;
66478;SDS011;53294;47.912;13.526;2024-03-07T03:26:58;4.13;;;2.03;;
66478;SDS011;53294;47.912;13.526;2024-03-07T03:29:25;3.55;;;1.98;;
66478;SDS011;53294;47.912;13.526;2024-03-07T03:31:55;3.35;;;1.55;;
66478;SDS011;53294;47.912;13.526;2024-03-07T03:34:22;4.15;;;1.88;;
66478;SDS011;53294;47.912;13.526;2024-03-07T03:36:49;4.93;;;2.38;;
66478;SDS011;53294;47.912;13.526;2024-03-07T03:39:16;4.50;;;2.47;;
66478;SDS011;53294;47.912;13.526;2024-03-07T03:41:42;5.85;;;1.85;;
66478;SDS011;53294;47.912;13.526;2024-03-07T03:44:09;3.78;;;2.13;;
66478;SDS011;53294;47.912;13.526;2024-03-07T03:46:38;2.60;;;1.45;;
66478;SDS011;53294;47.912;13.526;2024-03-07T03:49:04;4.40;;;2.05;;
66478;SDS011;53294;47.912;13.526;2024-03-07T03:51:32;5.47;;;1.98;;
66478;SDS011;53294;47.912;13.526;2024-03-07T03:53:59;6.38;;;2.15;;
66478;SDS011;53294;47.912;13.526;2024-03-07T03:56:26;3.50;;;1.60;;
66478;SDS011;53294;47.912;13.526;2024-03-07T03:58:53;5.53;;;2.97;;
66478;SDS011;53294;47.912;13.526;2024-03-07T04:01:20;5.78;;;2.28;;
66478;SDS011;53294;47.912;13.526;2024-03-07T04:03:46;5.97;;;1.85;;
66478;SDS011;53294;47.912;13.526;2024-03-07T04:06:13;3.60;;;1.73;;
66478;SDS011;53294;47.912;13.526;2024-03-07T04:08:41;3.53;;;2.03;;
66478;SDS011;53294;47.912;13.526;2024-03-07T04:11:08;4.50;;;2.05;;
66478;SDS011;53294;47.912;13.526;2024-03-07T04:13:37;4.40;;;1.98;;
66478;SDS011;53294;47.912;13.526;2024-03-07T04:16:04;7.65;;;2.60;;
66478;SDS011;53294;47.912;13.526;2024-03-07T04:18:31;4.00;;;1.65;;
66478;SDS011;53294;47.912;13.526;2024-03-07T04:20:59;3.58;;;2.13;;
66478;SDS011;53294;47.912;13.526;2024-03-07T04:23:26;4.97;;;1.55;;
66478;SDS011;53294;47.912;13.526;2024-03-07T04:25:54;8.90;;;2.65;;
66478;SDS011;53294;47.912;13.526;2024-03-07T04:28:22;5.75;;;2.20;;
66478;SDS011;53294;47.912;13.526;2024-03-07T04:30:49;3.42;;;2.38;;
66478;SDS011;53294;47.912;13.526;2024-03-07T04:33:16;5.03;;;2.00;;
66478;SDS011;53294;47.912;13.526;2024-03-07T04:35:43;7.20;;;1.92;;
66478;SDS011;53294;47.912;13.526;2024-03-07T04:38:10;7.15;;;2.55;;
66478;SDS011;53294;47.912;13.526;2024-03-07T04:40:41;3.95;;;2.00;;
66478;SDS011;53294;47.912;13.526;2024-03-07T04:43:08;3.58;;;1.92;;
66478;SDS011;53294;47.912;13.526;2024-03-07T04:45:35;5.10;;;1.80;;
66478;SDS011;53294;47.912;13.526;2024-03-07T04:48:02;8.02;;;2.83;;
66478;SDS011;53294;47.912;13.526;2024-03-07T04:50:30;3.47;;;1.58;;
66478;SDS011;53294;47.912;13.526;2024-03-07T04:52:57;6.15;;;2.45;;
66478;SDS011;53294;47.912;13.526;2024-03-07T04:55:24;5.28;;;2.47;;
66478;SDS011;53294;47.912;13.526;2024-03-07T04:57:51;4.18;;;2.50;;
66478;SDS011;53294;47.912;13.526;2024-03-07T05:00:18;9.05;;;2.47;;
66478;SDS011;53294;47.912;13.526;2024-03-07T05:02:47;5.55;;;2.75;;
66478;SDS011;53294;47.912;13.526;2024-03-07T05:05:17;6.28;;;2.83;;
66478;SDS011;53294;47.912;13.526;2024-03-07T05:07:49;11.02;;;2.83;;
66478;SDS011;53294;47.912;13.526;2024-03-07T05:10:17;7.75;;;3.25;;
66478;SDS011;53294;47.912;13.526;2024-03-07T05:12:45;5.35;;;2.60;;
66478;SDS011;53294;47.912;13.526;2024-03-07T05:15:11;7.70;;;3.53;;
66478;SDS011;53294;47.912;13.526;2024-03-07T05:17:38;6.75;;;3.05;;
66478;SDS011;53294;47.912;13.526;2024-03-07T05:20:06;3.40;;;2.20;;
66478;SDS011;53294;47.912;13.526;2024-03-07T05:22:38;7.00;;;2.90;;
66478;SDS011;53294;47.912;13.526;2024-03-07T05:25:13;6.03;;;2.40;;
66478;SDS011;53294;47.912;13.526;2024-03-07T05:27:43;7.78;;;2.55;;
66478;SDS011;53294;47.912;13.526;2024-03-07T05:30:11;5.30;;;3.10;;
66478;SDS011;53294;47.912;13.526;2024-03-07T05:32:40;5.88;;;2.58;;
66478;SDS011;53294;47.912;13.526;2024-03-07T05:35:07;6.40;;;2.65;;
66478;SDS011;53294;47.912;13.526;2024-03-07T05:37:34;6.13;;;2.55;;
66478;SDS011;53294;47.912;13.526;2024-03-07T05:40:01;13.88;;;4.13;;
66478;SDS011;53294;47.912;13.526;2024-03-07T05:42:30;7.82;;;2.85;;
66478;SDS011;53294;47.912;13.526;2024-03-07T05:44:58;6.55;;;4.03;;
66478;SDS011;53294;47.912;13.526;2024-03-07T05:47:25;9.20;;;3.75;;
66478;SDS011;53294;47.912;13.526;2024-03-07T05:49:52;10.32;;;3.55;;
66478;SDS011;53294;47.912;13.526;2024-03-07T05:52:19;5.65;;;2.55;;
66478;SDS011;53294;47.912;13.526;2024-03-07T05:59:39;7.22;;;2.85;;
66478;SDS011;53294;47.912;13.526;2024-03-07T06:02:06;6.28;;;3.53;;
66478;SDS011;53294;47.912;13.526;2024-03-07T06:04:33;8.63;;;2.67;;
66478;SDS011;53294;47.912;13.526;2024-03-07T06:07:01;5.82;;;2.63;;
66478;SDS011;53294;47.912;13.526;2024-03-07T06:09:27;6.05;;;2.75;;
66478;SDS011;53294;47.912;13.526;2024-03-07T06:11:54;7.85;;;3.13;;
66478;SDS011;53294;47.912;13.526;2024-03-07T06:14:21;12.45;;;4.15;;
66478;SDS011;53294;47.912;13.526;2024-03-07T06:16:50;10.40;;;3.78;;
66478;SDS011;53294;47.912;13.526;2024-03-07T06:19:18;9.07;;;3.63;;
66478;SDS011;53294;47.912;13.526;2024-03-07T06:21:45;10.35;;;3.72;;
66478;SDS011;53294;47.912;13.526;2024-03-07T06:24:12;15.63;;;5.63;;
66478;SDS011;53294;47.912;13.526;2024-03-07T06:26:41;8.95;;;4.43;;
66478;SDS011;53294;47.912;13.526;2024-03-07T06:29:16;11.57;;;5.80;;
66478;SDS011;53294;47.912;13.526;2024-03-07T06:31:44;14.43;;;5.32;;
66478;SDS011;53294;47.912;13.526;2024-03-07T06:34:18;12.38;;;5.45;;
66478;SDS011;53294;47.912;13.526;2024-03-07T06:36:45;10.07;;;4.50;;
66478;SDS011;53294;47.912;13.526;2024-03-07T06:39:12;17.55;;;5.97;;
66478;SDS011;53294;47.912;13.526;2024-03-07T06:41:39;10.82;;;5.57;;
66478;SDS011;53294;47.912;13.526;2024-03-07T06:44:07;20.65;;;7.90;;
66478;SDS011;53294;47.912;13.526;2024-03-07T06:46:36;13.63;;;5.10;;
66478;SDS011;53294;47.912;13.526;2024-03-07T06:49:03;14.98;;;5.88;;
66478;SDS011;53294;47.912;13.526;2024-03-07T06:51:32;14.90;;;6.68;;
66478;SDS011;53294;47.912;13.526;2024-03-07T06:53:59;16.65;;;5.32;;
66478;SDS011;53294;47.912;13.526;2024-03-07T06:56:26;10.45;;;5.82;;
66478;SDS011;53294;47.912;13.526;2024-03-07T06:58:53;14.88;;;5.43;;
66478;SDS011;53294;47.912;13.526;2024-03-07T07:01:20;12.82;;;5.28;;
66478;SDS011;53294;47.912;13.526;2024-03-07T07:03:47;12.07;;;4.90;;
66478;SDS011;53294;47.912;13.526;2024-03-07T07:06:15;12.30;;;5.47;;
66478;SDS011;53294;47.912;13.526;2024-03-07T07:08:43;17.42;;;6.20;;
66478;SDS011;53294;47.912;13.526;2024-03-07T07:11:11;14.13;;;6.13;;
66478;SDS011;53294;47.912;13.526;2024-03-07T07:13:39;16.63;;;6.20;;
66478;SDS011;53294;47.912;13.526;2024-03-07T07:16:08;15.55;;;5.35;;
66478;SDS011;53294;47.912;13.526;2024-03-07T07:21:03;15.20;;;5.93;;
66478;SDS011;53294;47.912;13.526;2024-03-07T07:23:30;15.48;;;6.40;;
66478;SDS011;53294;47.912;13.526;2024-03-07T07:25:57;14.20;;;5.90;;
66478;SDS011;53294;47.912;13.526;2024-03-07T07:28:24;27.67;;;6.63;;
66478;SDS011;53294;47.912;13.526;2024-03-07T07:30:51;21.65;;;7.50;;
66478;SDS011;53294;47.912;13.526;2024-03-07T07:33:18;14.27;;;6.05;;
66478;SDS011;53294;47.912;13.526;2024-03-07T07:35:45;20.70;;;7.90;;
66478;SDS011;53294;47.912;13.526;2024-03-07T07:38:12;19.08;;;6.43;;
66478;SDS011;53294;47.912;13.526;2024-03-07T07:40:41;15.57;;;6.50;;
66478;SDS011;53294;47.912;13.526;2024-03-07T07:43:09;17.40;;;5.78;;
66478;SDS011;53294;47.912;13.526;2024-03-07T07:45:51;14.43;;;7.13;;
66478;SDS011;53294;47.912;13.526;2024-03-07T07:48:18;15.52;;;6.80;;
66478;SDS011;53294;47.912;13.526;2024-03-07T07:50:46;11.40;;;5.97;;
66478;SDS011;53294;47.912;13.526;2024-03-07T07:53:15;14.02;;;5.68;;
66478;SDS011;53294;47.912;13.526;2024-03-07T07:58:09;17.30;;;7.63;;
66478;SDS011;53294;47.912;13.526;2024-03-07T08:00:36;26.95;;;7.38;;
66478;SDS011;53294;47.912;13.526;2024-03-07T08:03:04;13.95;;;5.65;;
66478;SDS011;53294;47.912;13.526;2024-03-07T08:05:36;21.02;;;7.35;;
66478;SDS011;53294;47.912;13.526;2024-03-07T08:08:07;20.88;;;7.57;;
66478;SDS011;53294;47.912;13.526;2024-03-07T08:10:38;19.10;;;8.60;;
66478;SDS011;53294;47.912;13.526;2024-03-07T08:13:07;22.95;;;8.65;;
66478;SDS011;53294;47.912;13.526;2024-03-07T08:15:36;16.27;;;6.72;;
66478;SDS011;53294;47.912;13.526;2024-03-07T08:18:03;20.08;;;8.15;;
66478;SDS011;53294;47.912;13.526;2024-03-07T08:20:37;15.15;;;6.70;;
66478;SDS011;53294;47.912;13.526;2024-03-07T08:23:05;23.65;;;9.23;;
66478;SDS011;53294;47.912;13.526;2024-03-07T08:25:33;16.52;;;7.50;;
66478;SDS011;53294;47.912;13.526;2024-03-07T08:28:00;17.23;;;5.90;;
66478;SDS011;53294;47.912;13.526;2024-03-07T08:30:27;21.95;;;7.00;;
66478;SDS011;53294;47.912;13.526;2024-03-07T08:32:56;25.88;;;9.35;;
66478;SDS011;53294;47.912;13.526;2024-03-07T08:35:24;22.98;;;7.53;;
66478;SDS011;53294;47.912;13.526;2024-03-07T08:40:25;14.85;;;5.68;;
66478;SDS011;53294;47.912;13.526;2024-03-07T08:42:58;27.80;;;8.13;;
66478;SDS011;53294;47.912;13.526;2024-03-07T08:45:25;18.55;;;7.03;;
66478;SDS011;53294;47.912;13.526;2024-03-07T08:47:53;19.17;;;7.28;;
66478;SDS011;53294;47.912;13.526;2024-03-07T08:50:22;19.00;;;7.10;;
66478;SDS011;53294;47.912;13.526;2024-03-07T08:52:50;20.20;;;8.15;;
66478;SDS011;53294;47.912;13.526;2024-03-07T08:57:49;21.17;;;7.47;;
66478;SDS011;53294;47.912;13.526;2024-03-07T09:02:56;17.70;;;6.30;;
66478;SDS011;53294;47.912;13.526;2024-03-07T09:05:27;20.55;;;7.65;;
66478;SDS011;53294;47.912;13.526;2024-03-07T09:07:55;22.33;;;8.73;;
66478;SDS011;53294;47.912;13.526;2024-03-07T09:10:22;18.38;;;7.88;;
66478;SDS011;53294;47.912;13.526;2024-03-07T09:12:52;22.33;;;8.80;;
66478;SDS011;53294;47.912;13.526;2024-03-07T09:15:21;19.73;;;8.13;;
66478;SDS011;53294;47.912;13.526;2024-03-07T09:17:50;23.50;;;7.35;;
66478;SDS011;53294;47.912;13.526;2024-03-07T09:20:17;23.95;;;8.45;;
66478;SDS011;53294;47.912;13.526;2024-03-07T09:22:46;21.75;;;6.85;;
66478;SDS011;53294;47.912;13.526;2024-03-07T09:25:14;21.20;;;6.88;;
66478;SDS011;53294;47.912;13.526;2024-03-07T09:27:43;15.68;;;6.13;;
66478;SDS011;53294;47.912;13.526;2024-03-07T09:30:10;27.42;;;7.45;;
66478;SDS011;53294;47.912;13.526;2024-03-07T09:32:39;18.30;;;6.90;;
66478;SDS011;53294;47.912;13.526;2024-03-07T09:35:07;28.48;;;9.45;;
66478;SDS011;53294;47.912;13.526;2024-03-07T09:37:40;20.02;;;7.15;;
66478;SDS011;53294;47.912;13.526;2024-03-07T09:40:09;17.33;;;7.28;;
66478;SDS011;53294;47.912;13.526;2024-03-07T09:42:41;18.05;;;7.68;;
66478;SDS011;53294;47.912;13.526;2024-03-07T09:45:16;18.95;;;7.53;;
66478;SDS011;53294;47.912;13.526;2024-03-07T09:47:46;19.45;;;7.25;;
66478;SDS011;53294;47.912;13.526;2024-03-07T09:50:15;20.45;;;7.22;;
66478;SDS011;53294;47.912;13.526;2024-03-07T09:52:46;16.92;;;7.07;;
66478;SDS011;53294;47.912;13.526;2024-03-07T09:55:18;20.17;;;7.55;;
66478;SDS011;53294;47.912;13.526;2024-03-07T09:57:46;14.70;;;5.75;;
66478;SDS011;53294;47.912;13.526;2024-03-07T10:00:17;18.30;;;7.90;;
66478;SDS011;53294;47.912;13.526;2024-03-07T10:02:51;19.88;;;6.95;;
66478;SDS011;53294;47.912;13.526;2024-03-07T10:05:21;20.15;;;7.38;;
66478;SDS011;53294;47.912;13.526;2024-03-07T10:07:49;16.75;;;7.35;;
66478;SDS011;53294;47.912;13.526;2024-03-07T10:10:21;15.23;;;6.07;;
66478;SDS011;53294;47.912;13.526;2024-03-07T10:12:51;14.95;;;5.95;;
66478;SDS011;53294;47.912;13.526;2024-03-07T10:15:27;14.55;;;5.82;;
66478;SDS011;53294;47.912;13.526;2024-03-07T10:17:58;10.88;;;4.70;;
66478;SDS011;53294;47.912;13.526;2024-03-07T10:20:27;14.77;;;5.30;;
66478;SDS011;53294;47.912;13.526;2024-03-07T10:22:54;16.55;;;5.90;;
66478;SDS011;53294;47.912;13.526;2024-03-07T10:25:24;14.90;;;5.47;;
66478;SDS011;53294;47.912;13.526;2024-03-07T10:27:53;7.15;;;3.97;;
66478;SDS011;53294;47.912;13.526;2024-03-07T10:30:21;12.95;;;3.95;;
66478;SDS011;53294;47.912;13.526;2024-03-07T10:32:52;11.93;;;4.93;;
66478;SDS011;53294;47.912;13.526;2024-03-07T10:35:22;12.70;;;5.63;;
66478;SDS011;53294;47.912;13.526;2024-03-07T10:37:53;11.52;;;4.88;;
66478;SDS011;53294;47.912;13.526;2024-03-07T10:40:24;11.52;;;5.25;;
66478;SDS011;53294;47.912;13.526;2024-03-07T10:42:56;9.98;;;4.05;;
66478;SDS011;53294;47.912;13.526;2024-03-07T10:45:24;11.00;;;5.68;;
66478;SDS011;53294;47.912;13.526;2024-03-07T10:47:56;9.73;;;4.70;;
66478;SDS011;53294;47.912;13.526;2024-03-07T10:56:33;11.15;;;5.00;;
66478;SDS011;53294;47.912;13.526;2024-03-07T10:59:19;11.75;;;4.15;;
66478;SDS011;53294;47.912;13.526;2024-03-07T11:01:59;8.52;;;3.90;;
66478;SDS011;53294;47.912;13.526;2024-03-07T11:04:37;9.27;;;4.10;;
66478;SDS011;53294;47.912;13.526;2024-03-07T11:09:31;7.65;;;3.97;;
66478;SDS011;53294;47.912;13.526;2024-03-07T11:12:00;9.18;;;3.45;;
66478;SDS011;53294;47.912;13.526;2024-03-07T11:14:33;7.25;;;3.58;;
66478;SDS011;53294;47.912;13.526;2024-03-07T11:17:01;13.23;;;5.13;;
66478;SDS011;53294;47.912;13.526;2024-03-07T11:19:33;14.57;;;4.80;;
66478;SDS011;53294;47.912;13.526;2024-03-07T11:22:04;10.88;;;4.50;;
66478;SDS011;53294;47.912;13.526;2024-03-07T11:24:43;16.13;;;3.78;;
66478;SDS011;53294;47.912;13.526;2024-03-07T11:27:12;8.35;;;3.72;;
66478;SDS011;53294;47.912;13.526;2024-03-07T11:29:42;9.65;;;3.50;;
66478;SDS011;53294;47.912;13.526;2024-03-07T11:32:14;8.82;;;3.80;;
66478;SDS011;53294;47.912;13.526;2024-03-07T11:34:42;9.30;;;3.63;;
66478;SDS011;53294;47.912;13.526;2024-03-07T11:39:50;12.13;;;4.05;;
66478;SDS011;53294;47.912;13.526;2024-03-07T11:42:27;8.82;;;4.05;;
66478;SDS011;53294;47.912;13.526;2024-03-07T11:44:59;7.47;;;4.40;;
66478;SDS011;53294;47.912;13.526;2024-03-07T11:47:39;9.63;;;3.97;;
66478;SDS011;53294;47.912;13.526;2024-03-07T11:50:07;11.00;;;3.72;;
66478;SDS011;53294;47.912;13.526;2024-03-07T11:52:46;9.07;;;3.92;;
66478;SDS011;53294;47.912;13.526;2024-03-07T11:55:13;11.45;;;3.63;;
66478;SDS011;53294;47.912;13.526;2024-03-07T11:57:40;12.45;;;5.20;;
66478;SDS011;53294;47.912;13.526;2024-03-07T12:00:10;8.13;;;3.97;;
66478;SDS011;53294;47.912;13.526;2024-03-07T12:02:37;7.97;;;3.10;;
66478;SDS011;53294;47.912;13.526;2024-03-07T12:05:06;9.40;;;4.13;;
66478;SDS011;53294;47.912;13.526;2024-03-07T12:07:33;8.15;;;4.10;;
66478;SDS011;53294;47.912;13.526;2024-03-07T12:10:00;15.68;;;4.72;;
66478;SDS011;53294;47.912;13.526;2024-03-07T12:12:33;11.70;;;5.10;;
66478;SDS011;53294;47.912;13.526;2024-03-07T12:15:00;8.55;;;3.63;;
66478;SDS011;53294;47.912;13.526;2024-03-07T12:17:35;7.85;;;3.58;;
66478;SDS011;53294;47.912;13.526;2024-03-07T12:22:50;9.77;;;3.60;;
66478;SDS011;53294;47.912;13.526;2024-03-07T12:25:20;7.22;;;3.20;;
66478;SDS011;53294;47.912;13.526;2024-03-07T12:28:00;10.50;;;3.92;;
66478;SDS011;53294;47.912;13.526;2024-03-07T12:30:47;7.47;;;4.13;;
66478;SDS011;53294;47.912;13.526;2024-03-07T12:33:18;8.70;;;3.22;;
66478;SDS011;53294;47.912;13.526;2024-03-07T12:35:46;9.23;;;3.00;;
66478;SDS011;53294;47.912;13.526;2024-03-07T12:38:16;8.02;;;3.20;;
66478;SDS011;53294;47.912;13.526;2024-03-07T12:40:43;9.35;;;3.55;;
66478;SDS011;53294;47.912;13.526;2024-03-07T12:43:13;8.48;;;3.05;;
66478;SDS011;53294;47.912;13.526;2024-03-07T12:45:51;9.88;;;3.55;;
66478;SDS011;53294;47.912;13.526;2024-03-07T12:48:18;7.90;;;3.40;;
66478;SDS011;53294;47.912;13.526;2024-03-07T12:50:48;7.75;;;2.80;;
66478;SDS011;53294;47.912;13.526;2024-03-07T12:53:22;8.70;;;3.05;;
66478;SDS011;53294;47.912;13.526;2024-03-07T12:55:52;7.38;;;3.70;;
66478;SDS011;53294;47.912;13.526;2024-03-07T12:58:19;9.00;;;4.07;;
66478;SDS011;53294;47.912;13.526;2024-03-07T13:00:53;11.48;;;3.40;;
66478;SDS011;53294;47.912;13.526;2024-03-07T13:03:23;8.15;;;3.38;;
66478;SDS011;53294;47.912;13.526;2024-03-07T13:05:57;7.53;;;3.67;;
66478;SDS011;53294;47.912;13.526;2024-03-07T13:08:28;6.10;;;3.45;;
66478;SDS011;53294;47.912;13.526;2024-03-07T13:10:58;6.97;;;2.75;;
66478;SDS011;53294;47.912;13.526;2024-03-07T13:13:27;4.53;;;2.78;;
66478;SDS011;53294;47.912;13.526;2024-03-07T13:15:54;6.25;;;2.47;;
66478;SDS011;53294;47.912;13.526;2024-03-07T13:18:22;10.07;;;3.60;;
66478;SDS011;53294;47.912;13.526;2024-03-07T13:20:50;9.57;;;4.25;;
66478;SDS011;53294;47.912;13.526;2024-03-07T13:23:16;7.13;;;3.53;;
66478;SDS011;53294;47.912;13.526;2024-03-07T13:25:43;7.57;;;3.35;;
66478;SDS011;53294;47.912;13.526;2024-03-07T13:28:14;6.53;;;3.13;;
66478;SDS011;53294;47.912;13.526;2024-03-07T13:30:51;8.55;;;3.53;;
66478;SDS011;53294;47.912;13.526;2024-03-07T13:33:21;8.52;;;3.72;;
66478;SDS011;53294;47.912;13.526;2024-03-07T13:35:51;8.57;;;3.20;;
66478;SDS011;53294;47.912;13.526;2024-03-07T13:40:45;8.98;;;3.40;;
66478;SDS011;53294;47.912;13.526;2024-03-07T13:43:12;6.65;;;2.53;;
66478;SDS011;53294;47.912;13.526;2024-03-07T13:45:39;6.60;;;2.80;;
66478;SDS011;53294;47.912;13.526;2024-03-07T13:48:07;6.53;;;3.97;;
66478;SDS011;53294;47.912;13.526;2024-03-07T13:50:37;9.15;;;3.00;;
66478;SDS011;53294;47.912;13.526;2024-03-07T13:53:26;6.82;;;3.75;;
66478;SDS011;53294;47.912;13.526;2024-03-07T13:56:02;10.52;;;4.55;;
66478;SDS011;53294;47.912;13.526;2024-03-07T14:24:58;14.45;;;3.50;;
66478;SDS011;53294;47.912;13.526;2024-03-07T14:30:59;15.13;;;3.65;;
66478;SDS011;53294;47.912;13.526;2024-03-07T14:33:26;8.13;;;3.50;;
66478;SDS011;53294;47.912;13.526;2024-03-07T14:36:02;7.07;;;3.40;;
66478;SDS011;53294;47.912;13.526;2024-03-07T14:41:18;7.10;;;3.80;;
66478;SDS011;53294;47.912;13.526;2024-03-07T14:43:49;6.40;;;2.75;;
66478;SDS011;53294;47.912;13.526;2024-03-07T14:46:17;5.75;;;3.25;;
66478;SDS011;53294;47.912;13.526;2024-03-07T14:48:44;5.90;;;2.45;;
66478;SDS011;53294;47.912;13.526;2024-03-07T14:51:11;7.32;;;2.38;;
66478;SDS011;53294;47.912;13.526;2024-03-07T14:53:40;11.25;;;2.88;;
66478;SDS011;53294;47.912;13.526;2024-03-07T14:56:11;5.97;;;2.85;;
66478;SDS011;53294;47.912;13.526;2024-03-07T14:58:38;6.70;;;2.85;;
66478;SDS011;53294;47.912;13.526;2024-03-07T15:01:06;5.25;;;2.25;;
66478;SDS011;53294;47.912;13.526;2024-03-07T15:03:33;6.38;;;2.97;;
66478;SDS011;53294;47.912;13.526;2024-03-07T15:06:00;6.97;;;2.40;;
66478;SDS011;53294;47.912;13.526;2024-03-07T15:08:29;8.75;;;3.42;;
66478;SDS011;53294;47.912;13.526;2024-03-07T15:13:50;4.90;;;2.20;;
66478;SDS011;53294;47.912;13.526;2024-03-07T15:16:17;7.05;;;2.60;;
66478;SDS011;53294;47.912;13.526;2024-03-07T15:18:58;6.10;;;2.75;;
66478;SDS011;53294;47.912;13.526;2024-03-07T15:21:25;6.22;;;2.30;;
66478;SDS011;53294;47.912;13.526;2024-03-07T15:23:54;7.32;;;2.63;;
66478;SDS011;53294;47.912;13.526;2024-03-07T15:26:21;15.45;;;3.63;;
66478;SDS011;53294;47.912;13.526;2024-03-07T15:28:51;6.85;;;2.58;;
66478;SDS011;53294;47.912;13.526;2024-03-07T15:31:18;8.57;;;3.22;;
66478;SDS011;53294;47.912;13.526;2024-03-07T15:33:48;4.25;;;2.25;;
66478;SDS011;53294;47.912;13.526;2024-03-07T15:36:17;6.70;;;2.80;;
66478;SDS011;53294;47.912;13.526;2024-03-07T15:41:11;7.82;;;3.20;;
66478;SDS011;53294;47.912;13.526;2024-03-07T15:43:38;10.45;;;3.63;;
66478;SDS011;53294;47.912;13.526;2024-03-07T15:48:39;9.77;;;3.85;;
66478;SDS011;53294;47.912;13.526;2024-03-07T15:51:07;7.78;;;3.22;;
66478;SDS011;53294;47.912;13.526;2024-03-07T15:53:39;8.38;;;3.97;;
66478;SDS011;53294;47.912;13.526;2024-03-07T15:56:07;5.25;;;2.38;;
66478;SDS011;53294;47.912;13.526;2024-03-07T15:58:34;6.25;;;3.20;;
66478;SDS011;53294;47.912;13.526;2024-03-07T16:01:02;6.85;;;2.65;;
66478;SDS011;53294;47.912;13.526;2024-03-07T16:03:29;8.23;;;2.72;;